Saint-Prosper-De-Dorchester, Canada
Current Conditions -  °F | °C
As of 2:00 AM on Wednesday 22 Oct 2014 (Local Time) from CYQB Reporting Station
Overcast Overcast  
Wind Chill:   Ceiling: 7000
Heat Index:   Visibility: 15mi
Dew Point:   Wind: 17mph
Humidity: 61%   Direction: 50°NE
Pressure: 30.28"   Gusts: 24mph
Location:  46.2°N, 70.48°W
Report Text: CYQB 220600Z 05015G21KT 15SM OVC070 07/M00 A3028 RMK AC8 SLP257
Loading
Personal Weather Stations






























Interactive Weather Map
Tropical Storm Tracking
New forecast layout! Learn more

10-Day Weather Forecast

Advertisements
Track Severe Weather on mobile